createdAt,value
2023-01-17T00:02:31.893Z,81.07
2023-01-17T00:05:51.959Z,80.19
2023-01-17T00:09:13.592Z,80.27
2023-01-17T00:12:16.187Z,79.89
2023-01-17T00:15:19.772Z,79.76
2023-01-17T00:18:22.330Z,79.43
2023-01-17T00:21:42.675Z,79.33
2023-01-17T00:25:04.379Z,79.01
2023-01-17T00:28:05.929Z,78.50
2023-01-17T00:31:08.182Z,78.50
2023-01-17T00:34:09.668Z,78.20
2023-01-17T00:37:11.115Z,78.15
2023-01-17T00:40:14.088Z,78.61
2023-01-17T00:43:36.774Z,77.89
2023-01-17T00:46:57.191Z,77.94
2023-01-17T00:50:17.456Z,77.89
2023-01-17T00:53:37.587Z,77.85
2023-01-17T00:56:59.043Z,77.65
2023-01-17T01:00:19.309Z,77.83
2023-01-17T01:03:39.616Z,77.95
2023-01-17T01:06:59.985Z,77.89
2023-01-17T01:10:20.320Z,77.98
2023-01-17T01:13:42.897Z,78.16
2023-01-17T01:17:03.268Z,78.20
2023-01-17T01:20:24.068Z,78.17
2023-01-17T01:23:44.407Z,78.25
2023-01-17T01:27:04.797Z,78.35
2023-01-17T01:30:27.511Z,78.57
2023-01-17T01:33:29.037Z,78.57
2023-01-17T01:36:31.637Z,78.57
2023-01-17T01:39:34.259Z,78.55
2023-01-17T01:42:36.833Z,78.40
2023-01-17T01:45:40.813Z,78.81
2023-01-17T01:48:45.301Z,78.66
2023-01-17T01:51:50.179Z,78.70
2023-01-17T01:54:54.052Z,78.75
2023-01-17T01:57:58.895Z,78.99
2023-01-17T02:01:03.075Z,78.80
2023-01-17T02:04:09.680Z,78.52
2023-01-17T02:07:13.757Z,78.73
2023-01-17T02:10:17.011Z,78.37
2023-01-17T02:13:20.644Z,78.00
2023-01-17T02:16:43.842Z,77.64
2023-01-17T02:20:29.852Z,77.38
2023-01-17T02:24:09.703Z,77.09
2023-01-17T02:27:17.439Z,76.94
2023-01-17T02:30:39.788Z,76.76
2023-01-17T02:33:45.548Z,76.11
2023-01-17T02:36:50.835Z,76.13
2023-01-17T02:39:55.247Z,75.83
2023-01-17T02:42:59.290Z,75.51
2023-01-17T02:46:03.294Z,75.45
2023-01-17T02:49:05.902Z,75.00
2023-01-17T02:52:18.311Z,75.03
2023-01-17T02:55:25.422Z,74.50
2023-01-17T02:58:39.650Z,74.46
2023-01-17T03:01:49.516Z,73.79
2023-01-17T03:04:52.892Z,73.80
2023-01-17T03:07:55.401Z,74.12
2023-01-17T03:10:57.995Z,73.94
2023-01-17T03:14:00.601Z,74.38
2023-01-17T03:17:04.623Z,74.03
2023-01-17T03:20:07.704Z,74.02
2023-01-17T03:23:10.281Z,74.03
2023-01-17T03:26:12.847Z,73.96
2023-01-17T03:29:16.377Z,73.97
2023-01-17T03:32:20.255Z,74.01
2023-01-17T03:35:22.824Z,73.95
2023-01-17T03:38:25.797Z,73.78
2023-01-17T03:41:28.421Z,73.53
2023-01-17T03:44:30.996Z,73.68
2023-01-17T03:47:35.505Z,73.22
2023-01-17T03:50:38.022Z,73.44
2023-01-17T03:53:40.539Z,73.41
2023-01-17T03:56:43.052Z,73.51
2023-01-17T03:59:46.031Z,73.52
2023-01-17T04:02:49.973Z,72.99
2023-01-17T04:05:52.552Z,72.66
2023-01-17T04:08:55.153Z,72.78
2023-01-17T04:11:57.735Z,72.88
2023-01-17T04:15:00.321Z,72.92
2023-01-17T04:18:04.876Z,72.76
2023-01-17T04:21:07.706Z,72.83
2023-01-17T04:24:10.296Z,72.67
2023-01-17T04:27:14.263Z,72.68
2023-01-17T04:30:17.049Z,72.83
2023-01-17T04:33:21.592Z,72.70
2023-01-17T04:36:24.183Z,72.65
2023-01-17T04:39:26.752Z,72.52
2023-01-17T04:42:29.315Z,72.45
2023-01-17T04:45:31.899Z,72.21
2023-01-17T04:48:35.818Z,72.08
2023-01-17T04:51:38.335Z,72.18
2023-01-17T04:54:40.897Z,71.83
2023-01-17T04:57:43.471Z,71.99
2023-01-17T05:00:50.652Z,71.59
2023-01-17T05:03:54.619Z,71.29
2023-01-17T05:06:57.151Z,71.37
2023-01-17T05:10:00.767Z,71.39
2023-01-17T05:13:03.305Z,71.23
2023-01-17T05:16:06.230Z,71.21
2023-01-17T05:19:10.252Z,70.90
2023-01-17T05:22:15.760Z,70.79
2023-01-17T05:25:18.291Z,70.93
2023-01-17T05:28:20.902Z,70.91
2023-01-17T05:31:23.526Z,70.62
2023-01-17T05:34:27.421Z,70.37
2023-01-17T05:37:30.014Z,70.11
2023-01-17T05:40:33.446Z,70.51
2023-01-17T05:43:36.021Z,70.55
2023-01-17T05:46:38.608Z,70.50
2023-01-17T05:49:45.110Z,70.34
2023-01-17T05:52:50.299Z,70.12
2023-01-17T05:55:52.883Z,70.34
2023-01-17T05:58:55.491Z,70.16
2023-01-17T06:01:58.193Z,69.99
2023-01-17T06:05:03.550Z,69.87
2023-01-17T06:08:06.571Z,69.83
2023-01-17T06:11:09.156Z,70.08
2023-01-17T06:14:11.946Z,69.51
2023-01-17T06:17:15.524Z,69.85
2023-01-17T06:20:19.624Z,69.60
2023-01-17T06:23:22.214Z,69.82
2023-01-17T06:26:24.794Z,69.72
2023-01-17T06:29:27.310Z,69.72
2023-01-17T06:32:29.893Z,69.48
2023-01-17T06:35:33.776Z,69.25
2023-01-17T06:38:36.342Z,69.11
2023-01-17T06:41:39.076Z,68.86
2023-01-17T06:44:41.616Z,69.40
2023-01-17T06:47:44.328Z,69.49
2023-01-17T06:50:49.692Z,68.84
2023-01-17T06:53:52.232Z,69.29
2023-01-17T06:56:54.763Z,68.92
2023-01-17T06:59:57.291Z,69.21
2023-01-17T07:02:59.857Z,68.93
2023-01-17T07:06:03.816Z,69.55
2023-01-17T07:09:06.376Z,68.83
2023-01-17T07:12:08.924Z,69.30
2023-01-17T07:15:12.454Z,69.17
2023-01-17T07:18:16.208Z,69.54
2023-01-17T07:21:20.155Z,69.04
2023-01-17T07:24:22.728Z,69.65
2023-01-17T07:27:25.470Z,69.17
2023-01-17T07:30:27.980Z,69.47
2023-01-17T07:33:30.547Z,69.00
2023-01-17T07:36:34.428Z,69.99
2023-01-17T07:39:37.325Z,69.42
2023-01-17T07:42:39.949Z,69.79
2023-01-17T07:45:43.678Z,70.10
2023-01-17T07:48:46.215Z,69.84
2023-01-17T07:51:50.139Z,69.35
2023-01-17T07:54:52.659Z,69.78
2023-01-17T07:57:55.224Z,70.16
2023-01-17T08:01:02.486Z,69.75
2023-01-17T08:04:05.274Z,70.73
2023-01-17T08:07:09.190Z,70.37
2023-01-17T08:10:17.803Z,70.91
2023-01-17T08:13:20.903Z,71.13
2023-01-17T08:16:23.543Z,70.83
2023-01-17T08:19:26.074Z,71.51
2023-01-17T08:22:30.938Z,71.79
2023-01-17T08:25:35.190Z,71.90
2023-01-17T08:28:37.764Z,71.73
2023-01-17T08:31:40.363Z,72.23
2023-01-17T08:34:43.003Z,71.71
2023-01-17T08:37:46.916Z,71.80
2023-01-17T08:40:49.632Z,71.85
2023-01-17T08:43:52.390Z,72.06
2023-01-17T08:46:54.971Z,71.85
2023-01-17T08:49:59.446Z,72.03
2023-01-17T08:53:03.366Z,72.67
2023-01-17T08:56:06.500Z,72.73
2023-01-17T08:59:11.236Z,71.87
2023-01-17T09:02:14.756Z,70.11
2023-01-17T09:05:17.524Z,69.84
2023-01-17T09:08:21.477Z,69.75
2023-01-17T09:11:24.013Z,69.57
2023-01-17T09:14:26.618Z,69.29
2023-01-17T09:17:29.205Z,69.25
2023-01-17T09:20:31.778Z,68.88
2023-01-17T09:23:35.662Z,69.39
2023-01-17T09:26:38.254Z,69.42
2023-01-17T09:29:40.824Z,68.94
2023-01-17T09:32:43.429Z,69.70
2023-01-17T09:35:46.011Z,69.45
2023-01-17T09:38:50.199Z,69.28
2023-01-17T09:41:55.610Z,69.76
2023-01-17T09:44:58.201Z,69.26
2023-01-17T09:48:01.009Z,69.23
2023-01-17T09:51:07.276Z,69.11
2023-01-17T09:54:15.444Z,69.29
2023-01-17T09:57:35.619Z,69.73
2023-01-17T10:00:46.367Z,69.99
2023-01-17T10:03:57.943Z,69.45
2023-01-17T10:07:07.920Z,69.18
2023-01-17T10:10:35.181Z,69.55
2023-01-17T10:13:40.231Z,69.62
2023-01-17T10:16:45.345Z,69.43
2023-01-17T10:19:58.459Z,68.81
2023-01-17T10:23:08.326Z,67.90
2023-01-17T10:26:13.267Z,66.28
2023-01-17T10:29:20.002Z,65.77
2023-01-17T10:32:23.816Z,66.19
2023-01-17T10:35:28.332Z,66.34
2023-01-17T10:38:32.229Z,66.33
2023-01-17T10:41:38.134Z,65.90
2023-01-17T10:44:42.325Z,66.38
2023-01-17T10:47:47.809Z,65.87
2023-01-17T10:50:53.859Z,66.15
2023-01-17T10:54:04.996Z,66.30
2023-01-17T10:57:13.154Z,66.41
2023-01-17T11:00:29.732Z,65.93
2023-01-17T11:03:32.331Z,65.93
2023-01-17T11:06:49.736Z,64.75
2023-01-17T11:10:00.094Z,63.97
2023-01-17T11:13:04.381Z,63.29
2023-01-17T11:16:08.290Z,62.67
2023-01-17T11:19:16.205Z,61.98
2023-01-17T11:22:18.852Z,61.47
2023-01-17T11:25:23.039Z,61.08
2023-01-17T11:28:30.393Z,60.40
2023-01-17T11:31:33.021Z,60.11
2023-01-17T11:34:35.540Z,60.03
2023-01-17T11:37:38.631Z,59.96
2023-01-17T11:40:41.817Z,58.98
2023-01-17T11:43:52.298Z,58.61
2023-01-17T11:47:09.412Z,57.50
2023-01-17T11:50:24.484Z,57.25
2023-01-17T11:53:28.920Z,56.51
2023-01-17T11:56:32.920Z,56.12
2023-01-17T11:59:37.614Z,54.69
2023-01-17T12:03:00.918Z,54.76
2023-01-17T12:06:04.574Z,55.07
2023-01-17T12:09:12.552Z,53.90
2023-01-17T12:12:51.755Z,53.89
2023-01-17T12:16:01.582Z,53.72
2023-01-17T12:19:26.546Z,53.45
2023-01-17T12:22:46.122Z,52.80
2023-01-17T12:26:00.945Z,53.07
2023-01-17T12:29:43.844Z,52.98
2023-01-17T12:33:03.235Z,52.38
2023-01-17T12:36:09.502Z,52.06
2023-01-17T12:39:14.273Z,52.42
2023-01-17T12:42:19.193Z,52.00
2023-01-17T12:45:24.247Z,51.83
2023-01-17T12:48:30.253Z,51.56
2023-01-17T12:51:34.936Z,50.93
2023-01-17T12:54:39.216Z,51.01
2023-01-17T12:57:43.058Z,51.12
2023-01-17T13:00:47.131Z,50.96
2023-01-17T13:03:57.831Z,50.86
2023-01-17T13:07:06.069Z,51.15
2023-01-17T13:10:22.144Z,50.61
2023-01-17T13:13:25.914Z,50.90
2023-01-17T13:16:31.202Z,50.41
2023-01-17T13:19:41.531Z,50.14
2023-01-17T13:22:44.231Z,50.65
2023-01-17T13:25:48.076Z,50.10
2023-01-17T13:28:54.897Z,50.34
2023-01-17T13:32:00.143Z,50.11
2023-01-17T13:35:19.383Z,49.67
2023-01-17T13:38:54.841Z,49.73
2023-01-17T13:42:04.333Z,49.68
2023-01-17T13:45:10.652Z,49.33
2023-01-17T13:48:30.475Z,49.42
2023-01-17T13:52:02.678Z,49.31
2023-01-17T13:55:07.113Z,49.73
2023-01-17T13:58:28.016Z,49.13
2023-01-17T14:01:50.009Z,49.07
2023-01-17T14:05:09.639Z,49.23
2023-01-17T14:08:16.097Z,49.42
2023-01-17T14:11:18.694Z,49.21
2023-01-17T14:14:50.019Z,49.51
2023-01-17T14:17:56.940Z,49.66
2023-01-17T14:21:07.981Z,49.83
2023-01-17T14:24:16.411Z,49.91
2023-01-17T14:27:22.876Z,49.62
2023-01-17T14:30:26.610Z,49.85
2023-01-17T14:33:30.097Z,50.04
2023-01-17T14:36:34.465Z,49.66
2023-01-17T14:39:46.102Z,50.31
2023-01-17T14:42:49.612Z,50.19
2023-01-17T14:45:57.621Z,50.72
2023-01-17T14:49:00.908Z,51.24
2023-01-17T14:52:04.422Z,50.83
2023-01-17T14:55:15.597Z,50.84
2023-01-17T14:58:18.177Z,51.06
2023-01-17T15:01:21.097Z,51.48
2023-01-17T15:04:26.955Z,51.84
2023-01-17T15:07:31.494Z,52.33
2023-01-17T15:10:35.361Z,52.06
2023-01-17T15:13:44.645Z,52.65
2023-01-17T15:16:47.935Z,52.22
2023-01-17T15:19:51.993Z,52.36
2023-01-17T15:22:54.534Z,52.32
2023-01-17T15:25:58.435Z,52.72
2023-01-17T15:29:03.183Z,53.04
2023-01-17T15:32:06.813Z,53.29
2023-01-17T15:35:17.818Z,52.93
2023-01-17T15:38:20.346Z,53.33
2023-01-17T15:41:25.453Z,53.33
2023-01-17T15:44:46.876Z,53.65
2023-01-17T15:47:50.909Z,54.17
2023-01-17T15:50:58.879Z,54.58
2023-01-17T15:54:01.461Z,54.51
2023-01-17T15:57:18.534Z,54.70
2023-01-17T16:00:22.180Z,54.24
2023-01-17T16:03:25.754Z,54.84
2023-01-17T16:06:38.107Z,54.97
2023-01-17T16:09:42.820Z,55.72
2023-01-17T16:12:46.890Z,55.87
2023-01-17T16:15:49.517Z,55.96
2023-01-17T16:18:57.678Z,55.61
2023-01-17T16:22:02.746Z,55.71
2023-01-17T16:25:13.231Z,55.74
2023-01-17T16:28:17.111Z,56.00
2023-01-17T16:31:19.681Z,56.23
2023-01-17T16:34:23.795Z,56.43
2023-01-17T16:37:26.398Z,57.01
2023-01-17T16:40:29.855Z,57.35
2023-01-17T16:43:33.768Z,57.82
2023-01-17T16:46:38.468Z,57.72
2023-01-17T16:49:41.090Z,58.21
2023-01-17T16:52:43.633Z,58.75
2023-01-17T16:55:46.198Z,59.44
2023-01-17T16:58:51.918Z,59.46
2023-01-17T17:01:54.845Z,60.12
2023-01-17T17:04:57.463Z,60.10
2023-01-17T17:08:00.265Z,60.41
2023-01-17T17:11:12.832Z,60.64
2023-01-17T17:14:16.884Z,60.90
2023-01-17T17:17:19.487Z,61.22
2023-01-17T17:20:25.073Z,61.27
2023-01-17T17:23:27.839Z,61.43
2023-01-17T17:26:31.547Z,61.46
2023-01-17T17:29:36.059Z,61.53
2023-01-17T17:32:38.678Z,61.83
2023-01-17T17:35:41.242Z,61.88
2023-01-17T17:38:51.569Z,61.93
2023-01-17T17:41:54.140Z,62.27
2023-01-17T17:44:58.055Z,62.65
2023-01-17T17:48:00.651Z,62.83
2023-01-17T17:51:03.847Z,62.64
2023-01-17T17:54:07.299Z,62.67
2023-01-17T17:57:10.179Z,63.12
2023-01-17T18:00:15.121Z,63.17
2023-01-17T18:03:17.649Z,63.42
2023-01-17T18:06:20.249Z,63.73
2023-01-17T18:09:22.835Z,63.91
2023-01-17T18:12:25.412Z,64.16
2023-01-17T18:15:29.343Z,64.29
2023-01-17T18:18:32.272Z,64.32
2023-01-17T18:21:35.859Z,64.29
2023-01-17T18:24:38.423Z,64.57
2023-01-17T18:27:42.358Z,65.02
2023-01-17T18:30:46.238Z,64.86
2023-01-17T18:33:48.805Z,64.48
2023-01-17T18:36:51.587Z,64.67
2023-01-17T18:39:54.240Z,64.58
2023-01-17T18:42:57.489Z,64.65
2023-01-17T18:46:01.502Z,65.15
2023-01-17T18:49:04.099Z,65.46
2023-01-17T18:52:07.996Z,65.28
2023-01-17T18:55:10.610Z,66.03
2023-01-17T18:58:13.207Z,65.66
2023-01-17T19:01:17.863Z,66.06
2023-01-17T19:04:20.454Z,65.60
2023-01-17T19:07:24.026Z,65.22
2023-01-17T19:10:26.638Z,65.79
2023-01-17T19:13:29.221Z,65.76
2023-01-17T19:16:34.926Z,66.14
2023-01-17T19:19:38.043Z,66.44
2023-01-17T19:22:41.214Z,66.22
2023-01-17T19:25:43.762Z,66.37
2023-01-17T19:28:47.028Z,67.09
2023-01-17T19:31:50.953Z,66.55
2023-01-17T19:34:53.736Z,66.09
2023-01-17T19:37:56.577Z,66.86
2023-01-17T19:41:10.020Z,67.17
2023-01-17T19:44:13.343Z,67.12
2023-01-17T19:47:17.338Z,67.15
2023-01-17T19:50:20.104Z,67.57
2023-01-17T19:53:22.738Z,67.51
2023-01-17T19:56:26.404Z,67.63
2023-01-17T19:59:28.984Z,67.41
2023-01-17T20:02:34.598Z,67.71
2023-01-17T20:05:37.198Z,67.56
2023-01-17T20:08:40.089Z,67.16
2023-01-17T20:11:43.064Z,67.99
2023-01-17T20:14:45.600Z,67.64
2023-01-17T20:17:49.512Z,68.15
2023-01-17T20:20:57.323Z,68.91
2023-01-17T20:24:03.076Z,69.14
2023-01-17T20:27:05.711Z,69.17
2023-01-17T20:30:19.742Z,69.34
2023-01-17T20:33:24.263Z,68.59
2023-01-17T20:36:28.833Z,68.93
2023-01-17T20:39:32.656Z,69.58
2023-01-17T20:42:36.807Z,69.07
2023-01-17T20:45:39.412Z,69.07
2023-01-17T20:48:45.699Z,69.04
2023-01-17T20:51:48.424Z,68.28
2023-01-17T20:54:51.740Z,69.13
2023-01-17T20:57:54.436Z,68.95
2023-01-17T21:00:57.127Z,69.13
2023-01-17T21:04:01.064Z,68.99
2023-01-17T21:07:03.639Z,69.70
2023-01-17T21:10:06.988Z,69.52
2023-01-17T21:13:09.531Z,69.81
2023-01-17T21:16:13.943Z,69.93
2023-01-17T21:19:17.856Z,69.56
2023-01-17T21:22:20.424Z,69.75
2023-01-17T21:25:23.011Z,69.52
2023-01-17T21:28:26.591Z,69.18
2023-01-17T21:31:31.028Z,68.56
2023-01-17T21:34:35.121Z,69.65
2023-01-17T21:37:38.147Z,69.74
2023-01-17T21:40:40.818Z,69.72
2023-01-17T21:43:43.410Z,69.85
2023-01-17T21:46:46.347Z,69.79
2023-01-17T21:49:50.292Z,70.10
2023-01-17T21:52:52.873Z,69.83
2023-01-17T21:56:18.569Z,70.55
2023-01-17T21:59:21.087Z,70.70
2023-01-17T22:02:23.852Z,70.58
2023-01-17T22:05:27.792Z,70.68
2023-01-17T22:08:32.737Z,70.12
2023-01-17T22:11:36.954Z,70.41
2023-01-17T22:14:39.493Z,70.71
2023-01-17T22:17:42.398Z,70.76
2023-01-17T22:20:46.331Z,71.30
2023-01-17T22:23:50.078Z,71.58
2023-01-17T22:26:52.591Z,71.69
2023-01-17T22:29:55.167Z,71.30
2023-01-17T22:32:58.240Z,71.67
2023-01-17T22:36:02.385Z,71.12
2023-01-17T22:39:05.170Z,71.86
2023-01-17T22:42:08.224Z,71.38
2023-01-17T22:45:11.692Z,71.20
2023-01-17T22:48:14.227Z,70.79
2023-01-17T22:51:18.828Z,70.89
2023-01-17T22:54:21.520Z,70.66
2023-01-17T22:57:24.107Z,71.54
2023-01-17T23:00:26.687Z,71.66
2023-01-17T23:03:29.254Z,71.63
2023-01-17T23:06:33.718Z,72.09
2023-01-17T23:09:36.236Z,71.76
2023-01-17T23:12:38.861Z,71.37
2023-01-17T23:15:59.131Z,71.64
2023-01-17T23:19:19.471Z,71.59
2023-01-17T23:22:24.451Z,71.73
2023-01-17T23:25:26.978Z,72.00
2023-01-17T23:28:28.522Z,72.23
2023-01-17T23:31:31.102Z,72.08
2023-01-17T23:34:33.676Z,72.53
2023-01-17T23:37:55.194Z,72.33
2023-01-17T23:41:19.078Z,73.07
2023-01-17T23:44:21.648Z,73.46
2023-01-17T23:47:24.194Z,73.68
2023-01-17T23:50:26.735Z,73.46
2023-01-17T23:53:30.653Z,73.99
2023-01-17T23:56:33.197Z,74.37
2023-01-17T23:59:35.747Z,73.96
